Time;durP1;ratioP1;P1;durP2;ratioP2;P2;SDS_P1;SDS_P2;PMS_P1;PMS_P2;Temp;Humidity;BMP_temperature;BMP_pressure;BME280_temperature;BME280_humidity;BME280_pressure;Samples;Min_cycle;Max_cycle;Signal;HPM_P1;HPM_P2
2022/04/30 00:00:31;;;;;;;;;;;;;;;11.52;81.78;100185.69;5053591;28;881;-57
2022/04/30 00:02:59;;;;;;;;;;;;;;;11.58;81.46;100184.88;5035512;28;870;-57
2022/04/30 00:05:26;;;;;;;;;;;;;;;11.55;81.21;100182.16;5053318;28;802;-57
2022/04/30 00:07:53;;;;;;;;;;;;;;;11.48;81.48;100171.06;5053362;28;826;-57
2022/04/30 00:10:19;;;;;;;;;;;;;;;11.48;81.96;100174.66;5053072;28;1891;-57
2022/04/30 00:12:46;;;;;;;;;;;;;;;11.52;81.94;100178.22;5053077;28;823;-57
2022/04/30 00:15:13;;;;;;;;;;;;;;;11.48;81.86;100171.06;5053332;28;869;-57
2022/04/30 00:17:39;;;;;;;;;;;;;;;11.41;81.71;100183.78;5035254;28;1614;-57
2022/04/30 00:20:07;;;;;;;;;;;;;;;11.33;82.31;100184.97;5053041;28;846;-57
2022/04/30 00:22:35;;;;;;;;;;;;;;;11.30;82.96;100179.44;5052888;28;954;-57
2022/04/30 00:25:01;;;;;;;;;;;;;;;11.26;82.75;100175.88;5035113;28;1644;-57
2022/04/30 00:27:28;;;;;;;;;;;;;;;11.28;83.05;100179.81;5052699;28;1588;-57
2022/04/30 00:29:55;;;;;;;;;;;;;;;11.31;83.36;100178.22;5052799;28;1906;-57
2022/04/30 00:32:22;;;;;;;;;;;;;;;11.32;83.07;100177.84;5053076;28;848;-57
2022/04/30 00:34:49;;;;;;;;;;;;;;;11.29;83.74;100170.34;5052819;28;850;-58
2022/04/30 00:37:15;;;;;;;;;;;;;;;11.19;83.60;100169.16;5052356;28;853;-57
2022/04/30 00:39:42;;;;;;;;;;;;;;;11.13;83.90;100173.50;5052730;28;870;-57
2022/04/30 00:42:12;;;;;;;;;;;;;;;11.04;83.79;100173.13;5052566;28;839;-57
2022/04/30 00:44:38;;;;;;;;;;;;;;;10.91;84.22;100175.53;5052468;28;854;-57
2022/04/30 00:47:06;;;;;;;;;;;;;;;10.74;84.75;100179.09;5052556;28;819;-57
2022/04/30 00:49:32;;;;;;;;;;;;;;;10.58;85.56;100171.97;5052412;28;1890;-57
2022/04/30 00:52:02;;;;;;;;;;;;;;;10.67;86.95;100168.81;5052472;28;831;-58
2022/04/30 00:54:33;;;;;;;;;;;;;;;10.72;86.35;100162.88;5052364;28;870;-57
2022/04/30 00:57:02;;;;;;;;;;;;;;;10.68;86.35;100162.09;5053012;28;763;-57
2022/04/30 00:59:30;;;;;;;;;;;;;;;10.54;86.28;100160.13;5052550;28;861;-57
2022/04/30 01:01:59;;;;;;;;;;;;;;;10.39;86.58;100162.06;5034409;28;910;-58
2022/04/30 01:04:26;;;;;;;;;;;;;;;10.30;87.04;100160.84;5052150;28;929;-57
2022/04/30 01:07:03;;;;;;;;;;;;;;;10.25;87.95;100159.25;5052134;28;823;-57
2022/04/30 01:09:32;;;;;;;;;;;;;;;10.31;88.24;100156.94;5051989;28;1943;-58
2022/04/30 01:12:00;;;;;;;;;;;;;;;10.30;88.08;100158.09;5052200;28;858;-57
2022/04/30 01:14:29;;;;;;;;;;;;;;;10.24;88.23;100152.13;5051955;28;886;-57
2022/04/30 01:16:59;;;;;;;;;;;;;;;10.22;88.86;100168.31;5051876;28;965;-57
2022/04/30 01:19:27;;;;;;;;;;;;;;;10.13;88.59;100162.38;5052289;28;870;-57
2022/04/30 01:21:59;;;;;;;;;;;;;;;10.13;89.76;100163.16;5051969;28;813;-57
2022/04/30 01:24:26;;;;;;;;;;;;;;;10.27;89.06;100161.63;5051916;28;982;-58
2022/04/30 01:26:54;;;;;;;;;;;;;;;10.25;89.20;100159.25;5030637;28;1254;-57
2022/04/30 01:29:23;;;;;;;;;;;;;;;10.25;89.15;100167.53;5031809;28;1973;-57
2022/04/30 01:37:22;;;;;;;;;;;;;;;10.05;90.04;100155.25;5032145;28;664;-57
2022/04/30 01:39:52;;;;;;;;;;;;;;;10.14;90.22;100155.69;5030375;28;908;-57
2022/04/30 01:42:19;;;;;;;;;;;;;;;10.26;89.48;100151.75;5031657;28;1003;-57
2022/04/30 01:44:46;;;;;;;;;;;;;;;10.29;89.26;100150.97;5031705;28;932;-57
2022/04/30 01:47:16;;;;;;;;;;;;;;;10.31;89.18;100152.19;5031380;28;870;-57
2022/04/30 01:49:43;;;;;;;;;;;;;;;10.33;88.85;100152.59;5031270;28;1886;-57
2022/04/30 01:52:09;;;;;;;;;;;;;;;10.37;89.46;100150.63;5031672;28;834;-57
2022/04/30 01:54:36;;;;;;;;;;;;;;;10.51;89.47;100149.84;5031763;28;814;-57
2022/04/30 01:57:04;;;;;;;;;;;;;;;10.69;88.76;100144.31;5031570;28;853;-57
2022/04/30 01:59:31;;;;;;;;;;;;;;;10.82;88.09;100139.97;5031559;28;830;-57
2022/04/30 02:02:01;;;;;;;;;;;;;;;10.87;87.97;100138.00;5031531;28;854;-57
2022/04/30 02:04:28;;;;;;;;;;;;;;;10.80;87.77;100139.56;5031436;28;866;-57
2022/04/30 02:06:56;;;;;;;;;;;;;;;10.82;88.22;100125.38;5031403;28;877;-58
2022/04/30 02:09:23;;;;;;;;;;;;;;;10.78;87.88;100136.41;5031290;28;1953;-57
2022/04/30 02:11:50;;;;;;;;;;;;;;;10.69;87.90;100126.94;5031716;28;914;-57
2022/04/30 02:14:17;;;;;;;;;;;;;;;10.60;88.43;100127.31;5031374;28;882;-57
2022/04/30 02:16:45;;;;;;;;;;;;;;;10.62;88.69;100113.91;5031319;28;955;-57
2022/04/30 02:19:12;;;;;;;;;;;;;;;10.59;88.28;100112.72;5031359;28;862;-57
2022/04/30 02:21:39;;;;;;;;;;;;;;;10.52;88.64;100115.50;5031333;28;877;-57
2022/04/30 02:24:07;;;;;;;;;;;;;;;10.53;88.42;100124.56;5031197;28;915;-58
2022/04/30 02:26:33;;;;;;;;;;;;;;;10.42;88.59;100125.34;5040729;28;1307;-57
2022/04/30 02:29:01;;;;;;;;;;;;;;;10.47;88.02;100109.56;5051071;28;1909;-57
2022/04/30 02:31:28;;;;;;;;;;;;;;;10.54;87.90;100126.13;5051027;28;870;-57
2022/04/30 02:33:56;;;;;;;;;;;;;;;10.54;87.56;100112.31;5051088;28;818;-57
2022/04/30 02:36:26;;;;;;;;;;;;;;;10.47;87.45;100113.13;5051004;28;934;-57
2022/04/30 02:38:56;;;;;;;;;;;;;;;10.36;88.05;100113.09;5051260;28;968;-57
2022/04/30 02:41:23;;;;;;;;;;;;;;;10.25;88.05;100115.03;5033377;28;893;-57
2022/04/30 02:43:50;;;;;;;;;;;;;;;10.22;88.68;100126.88;5051050;28;897;-57
2022/04/30 02:46:20;;;;;;;;;;;;;;;10.20;88.96;100116.22;5050869;28;911;-57
2022/04/30 02:48:48;;;;;;;;;;;;;;;10.21;88.78;100130.81;5033018;28;2004;-57
2022/04/30 02:51:17;;;;;;;;;;;;;;;10.16;88.89;100109.13;5051244;28;858;-57
2022/04/30 02:53:45;;;;;;;;;;;;;;;10.16;89.08;100109.91;5050935;28;827;-58
2022/04/30 02:56:12;;;;;;;;;;;;;;;10.13;88.87;100113.44;5032985;28;814;-57
2022/04/30 03:01:24;;;;;;;;;;;;;;;10.14;88.83;100123.31;5054891;28;629;-57
2022/04/30 03:03:51;;;;;;;;;;;;;;;10.18;88.78;100121.34;5054565;28;834;-58
2022/04/30 03:06:17;;;;;;;;;;;;;;;10.28;88.38;100117.00;5054353;28;894;-57
2022/04/30 03:08:47;;;;;;;;;;;;;;;10.40;87.57;100130.47;5054296;28;1951;-57
2022/04/30 03:11:14;;;;;;;;;;;;;;;10.40;87.20;100122.19;5054314;28;910;-57
2022/04/30 03:13:41;;;;;;;;;;;;;;;10.42;87.28;100117.06;5054211;28;987;-57
2022/04/30 03:21:47;;;;;;;;;;;;;;;10.34;87.87;100122.97;5054543;28;656;-57
2022/04/30 03:24:16;;;;;;;;;;;;;;;10.37;87.57;100138.75;5054193;28;1113;-57
2022/04/30 03:26:43;;;;;;;;;;;;;;;10.44;87.30;100118.66;5053888;28;1233;-57
2022/04/30 03:29:10;;;;;;;;;;;;;;;10.40;86.91;100130.47;5053940;28;1973;-57
2022/04/30 03:31:40;;;;;;;;;;;;;;;10.40;87.24;100129.69;5054055;28;799;-57
2022/04/30 03:34:07;;;;;;;;;;;;;;;10.38;87.24;100132.06;5053860;28;855;-57
2022/04/30 03:36:34;;;;;;;;;;;;;;;10.44;87.02;100135.25;5053852;28;802;-57
2022/04/30 03:39:00;;;;;;;;;;;;;;;10.47;86.86;100142.72;5053698;28;902;-57
2022/04/30 03:41:27;;;;;;;;;;;;;;;10.47;86.74;100145.50;5053835;28;869;-57
2022/04/30 03:43:53;;;;;;;;;;;;;;;10.53;85.79;100141.16;5053749;28;881;-57
2022/04/30 03:46:20;;;;;;;;;;;;;;;10.60;85.62;100150.25;5053605;28;949;-57
2022/04/30 03:48:51;;;;;;;;;;;;;;;10.60;85.53;100154.97;5053899;28;1889;-57
2022/04/30 03:51:18;;;;;;;;;;;;;;;10.60;85.51;100152.22;5054041;28;869;-57
2022/04/30 03:53:44;;;;;;;;;;;;;;;10.64;85.16;100158.53;5053904;28;995;-57
2022/04/30 03:56:11;;;;;;;;;;;;;;;10.68;84.80;100161.31;5053544;28;917;-58
2022/04/30 03:58:41;;;;;;;;;;;;;;;10.74;84.87;100160.50;5053551;28;814;-57
2022/04/30 04:01:08;;;;;;;;;;;;;;;10.76;84.77;100141.56;5053698;28;877;-57
2022/04/30 04:03:36;;;;;;;;;;;;;;;10.77;84.07;100156.16;5053509;28;964;-57
2022/04/30 04:06:02;;;;;;;;;;;;;;;10.77;84.21;100165.25;5053483;28;858;-57
2022/04/30 04:08:29;;;;;;;;;;;;;;;10.86;82.80;100156.56;5053355;28;814;-57
2022/04/30 04:10:56;;;;;;;;;;;;;;;10.90;82.65;100162.88;5052719;28;1945;-57
2022/04/30 04:18:55;;;;;;;;;;;;;;;11.05;81.77;100174.72;5053064;28;613;-57
2022/04/30 04:21:22;;;;;;;;;;;;;;;11.09;81.80;100178.25;5052989;28;933;-57
2022/04/30 04:26:34;;;;;;;;;;;;;;;11.24;81.26;100170.72;5052626;28;1235;-57
2022/04/30 04:29:01;;;;;;;;;;;;;;;11.33;81.23;100176.66;5052869;28;1981;-57
2022/04/30 04:31:27;;;;;;;;;;;;;;;11.44;80.84;100184.94;5052861;28;791;-57
2022/04/30 04:33:54;;;;;;;;;;;;;;;11.60;80.62;100178.97;5052805;28;834;-57
2022/04/30 04:36:20;;;;;;;;;;;;;;;11.67;80.29;100181.72;5052687;28;870;-57
2022/04/30 04:38:47;;;;;;;;;;;;;;;11.72;79.38;100189.59;5052672;28;839;-57
2022/04/30 04:41:14;;;;;;;;;;;;;;;11.77;79.28;100191.16;5052544;28;926;-57
2022/04/30 04:43:42;;;;;;;;;;;;;;;11.82;78.48;100187.97;5052657;28;865;-57
2022/04/30 04:46:09;;;;;;;;;;;;;;;11.82;78.38;100190.75;5052546;28;814;-57
2022/04/30 04:48:36;;;;;;;;;;;;;;;11.93;77.76;100188.78;5052818;28;822;-57
2022/04/30 04:51:03;;;;;;;;;;;;;;;12.05;76.83;100193.88;5052256;28;1886;-57
2022/04/30 04:53:30;;;;;;;;;;;;;;;12.08;76.68;100181.19;5052421;28;823;-57
2022/04/30 04:55:58;;;;;;;;;;;;;;;12.08;76.07;100183.94;5052315;28;878;-57
2022/04/30 04:58:25;;;;;;;;;;;;;;;12.12;75.74;100189.44;5034451;28;2676;-57
2022/04/30 05:00:51;;;;;;;;;;;;;;;12.21;76.17;100190.59;5052273;28;818;-58
2022/04/30 05:03:18;;;;;;;;;;;;;;;12.30;75.49;100190.16;5052582;28;823;-57
2022/04/30 05:05:45;;;;;;;;;;;;;;;12.34;73.58;100188.16;5052175;28;794;-57
2022/04/30 05:08:12;;;;;;;;;;;;;;;12.32;73.86;100201.63;5052006;28;945;-57
2022/04/30 05:10:38;;;;;;;;;;;;;;;12.39;73.86;100200.78;5052132;28;1957;-57
2022/04/30 05:13:04;;;;;;;;;;;;;;;12.55;74.10;100203.88;5052126;28;845;-57
2022/04/30 05:15:30;;;;;;;;;;;;;;;12.71;72.69;100197.03;5052082;28;889;-57
2022/04/30 05:17:57;;;;;;;;;;;;;;;12.84;72.28;100200.88;5052017;28;838;-57
2022/04/30 05:20:25;;;;;;;;;;;;;;;12.96;72.52;100207.94;5051840;28;870;-57
2022/04/30 05:22:52;;;;;;;;;;;;;;;12.83;71.21;100207.63;5033133;28;859;-57
2022/04/30 05:25:19;;;;;;;;;;;;;;;12.70;71.70;100212.09;5052199;28;943;-57
2022/04/30 05:27:46;;;;;;;;;;;;;;;12.43;71.64;100207.09;5051641;28;1896;-57
2022/04/30 05:30:13;;;;;;;;;;;;;;;12.21;71.88;100212.00;5051753;28;2044;-57
2022/04/30 05:32:40;;;;;;;;;;;;;;;12.19;72.21;100208.84;5051641;28;1250;-57
2022/04/30 05:35:07;;;;;;;;;;;;;;;12.22;71.89;100210.78;5051703;28;834;-57
2022/04/30 05:37:33;;;;;;;;;;;;;;;12.15;72.97;100213.59;5051652;28;799;-57
2022/04/30 05:40:00;;;;;;;;;;;;;;;12.08;72.32;100211.66;5051706;28;849;-57
2022/04/30 05:42:27;;;;;;;;;;;;;;;12.10;72.83;100216.78;5051549;28;884;-57
2022/04/30 05:44:54;;;;;;;;;;;;;;;12.17;72.72;100214.78;5051578;28;859;-57
2022/04/30 05:47:22;;;;;;;;;;;;;;;12.36;71.82;100213.47;5051568;28;881;-57
2022/04/30 05:49:48;;;;;;;;;;;;;;;12.62;71.98;100226.00;5051488;28;1894;-57
2022/04/30 05:52:15;;;;;;;;;;;;;;;13.05;69.67;100213.78;5051497;28;838;-57
2022/04/30 05:54:41;;;;;;;;;;;;;;;13.27;68.62;100214.38;5051505;28;862;-57
2022/04/30 05:57:07;;;;;;;;;;;;;;;13.36;68.55;100211.19;5051382;28;1064;-57
2022/04/30 05:59:34;;;;;;;;;;;;;;;13.33;67.75;100218.31;5051442;28;811;-57
2022/04/30 06:02:01;;;;;;;;;;;;;;;13.52;67.90;100216.94;5051340;28;901;-57
2022/04/30 06:04:28;;;;;;;;;;;;;;;14.43;66.41;100212.66;5051316;28;866;-57
2022/04/30 06:06:54;;;;;;;;;;;;;;;14.68;63.67;100208.78;5051308;28;922;-57
2022/04/30 06:09:21;;;;;;;;;;;;;;;14.64;63.80;100208.81;5051234;28;1963;-57
2022/04/30 06:11:47;;;;;;;;;;;;;;;14.99;63.11;100214.25;5051264;28;953;-57
2022/04/30 06:14:14;;;;;;;;;;;;;;;14.98;62.48;100207.91;5051288;28;807;-57
2022/04/30 06:16:41;;;;;;;;;;;;;;;14.92;62.37;100214.38;5033559;28;902;-57
2022/04/30 06:19:08;;;;;;;;;;;;;;;15.05;62.50;100215.34;5051277;28;854;-57
2022/04/30 06:21:35;;;;;;;;;;;;;;;14.92;62.25;100214.38;5051234;28;849;-57
2022/04/30 06:24:02;;;;;;;;;;;;;;;14.79;62.82;100206.59;5051207;28;962;-57
2022/04/30 06:26:30;;;;;;;;;;;;;;;14.86;63.37;100214.84;5050930;28;1371;-57
2022/04/30 06:28:57;;;;;;;;;;;;;;;15.06;63.70;100219.69;5051004;28;1914;-57
2022/04/30 06:31:24;;;;;;;;;;;;;;;15.27;60.98;100208.19;5051059;28;953;-57
2022/04/30 06:33:52;;;;;;;;;;;;;;;15.02;61.66;100203.06;5051733;28;826;-56
2022/04/30 06:36:17;;;;;;;;;;;;;;;14.78;63.33;100205.03;5054994;28;957;-57
2022/04/30 06:38:44;;;;;;;;;;;;;;;14.87;62.89;100208.06;5055008;28;826;-57
2022/04/30 06:41:11;;;;;;;;;;;;;;;14.97;63.19;100205.53;5054959;28;851;-57
2022/04/30 06:43:38;;;;;;;;;;;;;;;14.93;62.46;100202.00;5054948;28;909;-57
2022/04/30 06:46:05;;;;;;;;;;;;;;;14.72;63.57;100217.06;5054866;28;1300;-57
2022/04/30 06:48:33;;;;;;;;;;;;;;;14.36;64.81;100211.97;5054677;28;972;-57
2022/04/30 06:51:00;;;;;;;;;;;;;;;14.59;64.88;100225.97;5054819;28;1947;-57
2022/04/30 06:57:14;;;;;;;;;;;;;;;15.00;61.75;100218.59;5054730;28;633;-57
2022/04/30 06:59:12;;;;;;;;;;;;;;;14.90;63.52;100225.91;5041147;28;1629;-57
2022/04/30 07:01:45;;;;;;;;;;;;;;;14.91;62.89;100219.13;5054465;28;917;-57
2022/04/30 07:04:14;;;;;;;;;;;;;;;14.88;63.83;100219.97;5054806;28;866;-57
2022/04/30 07:06:41;;;;;;;;;;;;;;;15.07;61.33;100207.34;5054362;28;984;-57
2022/04/30 07:09:08;;;;;;;;;;;;;;;14.81;62.74;100234.81;5054476;28;1957;-57
2022/04/30 07:11:35;;;;;;;;;;;;;;;14.53;63.47;100218.50;5054416;28;841;-57
2022/04/30 07:14:02;;;;;;;;;;;;;;;14.96;62.93;100221.44;5054230;28;838;-57
2022/04/30 07:16:29;;;;;;;;;;;;;;;15.68;60.73;100211.81;5054548;28;865;-57
2022/04/30 07:18:56;;;;;;;;;;;;;;;16.04;58.57;100222.28;5036457;28;1717;-57
2022/04/30 07:21:23;;;;;;;;;;;;;;;15.69;59.74;100221.75;5054242;28;858;-57
2022/04/30 07:23:51;;;;;;;;;;;;;;;15.78;59.81;100224.78;5053972;28;1033;-57
2022/04/30 07:26:18;;;;;;;;;;;;;;;15.87;59.20;100215.84;5053761;28;1226;-57
2022/04/30 07:28:46;;;;;;;;;;;;;;;15.91;58.56;100216.56;5053964;28;898;-57
2022/04/30 07:31:13;;;;;;;;;;;;;;;16.00;59.27;100218.78;5053921;28;1965;-57
2022/04/30 07:33:39;;;;;;;;;;;;;;;16.30;58.10;100223.31;5054212;28;835;-57
2022/04/30 07:36:07;;;;;;;;;;;;;;;16.43;58.02;100227.03;5053920;28;886;-57
2022/04/30 07:38:34;;;;;;;;;;;;;;;16.76;58.11;100224.28;5053975;28;878;-57
2022/04/30 07:41:01;;;;;;;;;;;;;;;17.74;56.51;100215.81;5053814;28;869;-57
2022/04/30 07:43:27;;;;;;;;;;;;;;;18.26;52.70;100222.34;5053776;28;862;-57
2022/04/30 07:45:54;;;;;;;;;;;;;;;17.95;53.50;100225.66;5052731;28;881;-57
2022/04/30 07:48:21;;;;;;;;;;;;;;;17.94;53.50;100217.69;5053664;28;886;-57
2022/04/30 07:50:48;;;;;;;;;;;;;;;18.72;52.12;100222.16;5053632;28;1886;-57
2022/04/30 07:53:15;;;;;;;;;;;;;;;19.59;51.36;100212.47;5053677;28;871;-57
2022/04/30 07:55:43;;;;;;;;;;;;;;;20.22;49.52;100213.38;5035630;28;1387;-57
2022/04/30 07:58:10;;;;;;;;;;;;;;;20.75;47.43;100210.53;5053544;28;857;-57
2022/04/30 08:00:37;;;;;;;;;;;;;;;20.45;47.32;100216.94;5053507;28;842;-57
2022/04/30 08:06:06;;;;;;;;;;;;;;;18.55;51.16;100216.66;5053939;28;628;-57
2022/04/30 08:11:44;;;;;;;;;;;;;;;18.68;51.28;100221.50;5053269;28;664;-57
2022/04/30 08:14:11;;;;;;;;;;;;;;;19.47;48.18;100210.50;5053478;28;811;-57
2022/04/30 08:16:37;;;;;;;;;;;;;;;19.30;48.49;100207.84;5053472;28;802;-57
2022/04/30 08:19:04;;;;;;;;;;;;;;;18.72;50.12;100211.75;5053423;28;855;-57
2022/04/30 08:21:31;;;;;;;;;;;;;;;18.70;49.92;100205.81;5035510;28;839;-57
2022/04/30 08:23:58;;;;;;;;;;;;;;;19.11;50.58;100195.69;5053292;28;885;-57
2022/04/30 08:26:24;;;;;;;;;;;;;;;19.58;48.56;100200.47;5053153;28;1237;-57
2022/04/30 08:28:51;;;;;;;;;;;;;;;19.82;48.96;100196.47;5053587;28;827;-57
2022/04/30 08:31:18;;;;;;;;;;;;;;;21.04;46.97;100197.34;5053405;28;1906;-57
2022/04/30 08:33:44;;;;;;;;;;;;;;;20.04;47.20;100193.66;5052761;28;826;-57
2022/04/30 08:36:11;;;;;;;;;;;;;;;18.42;51.38;100195.53;5052801;28;843;-57
2022/04/30 08:38:37;;;;;;;;;;;;;;;18.00;53.74;100196.34;5052757;28;870;-57
2022/04/30 08:41:08;;;;;;;;;;;;;;;18.01;52.31;100185.94;5052620;28;840;-57
2022/04/30 08:43:34;;;;;;;;;;;;;;;17.94;52.83;100200.91;5052978;28;898;-57
2022/04/30 08:46:01;;;;;;;;;;;;;;;17.91;51.93;100191.41;5052884;28;807;-57
2022/04/30 08:48:29;;;;;;;;;;;;;;;18.18;51.92;100190.25;5052813;28;834;-57
2022/04/30 08:50:56;;;;;;;;;;;;;;;18.52;51.48;100189.59;5052633;28;1878;-57
2022/04/30 08:53:23;;;;;;;;;;;;;;;19.27;51.57;100182.78;5052531;28;911;-57
2022/04/30 08:55:49;;;;;;;;;;;;;;;19.90;47.65;100192.16;5052644;28;897;-57
2022/04/30 08:58:17;;;;;;;;;;;;;;;19.82;47.68;100197.22;5052574;28;810;-57
2022/04/30 09:00:44;;;;;;;;;;;;;;;19.50;48.91;100187.97;5052498;28;586;-57
2022/04/30 09:03:15;;;;;;;;;;;;;;;19.45;49.96;100191.31;5052290;28;905;-57
2022/04/30 09:05:45;;;;;;;;;;;;;;;19.69;46.99;100188.84;5052318;28;857;-57
2022/04/30 09:08:12;;;;;;;;;;;;;;;19.83;48.55;100179.19;5052100;28;911;-57
2022/04/30 09:10:39;;;;;;;;;;;;;;;19.99;47.26;100187.41;5052189;28;1886;-57
2022/04/30 09:13:07;;;;;;;;;;;;;;;19.96;46.87;100182.69;5052047;28;858;-57
2022/04/30 09:15:34;;;;;;;;;;;;;;;20.13;46.64;100186.06;5051960;28;913;-57
2022/04/30 09:18:01;;;;;;;;;;;;;;;19.81;48.12;100184.47;5051946;28;835;-57
2022/04/30 09:20:30;;;;;;;;;;;;;;;20.28;48.44;100189.09;5051966;28;934;-57
2022/04/30 09:22:56;;;;;;;;;;;;;;;20.68;49.33;100191.19;5051809;28;885;-57
2022/04/30 09:38:14;;;;;;;;;;;;;;;20.05;48.75;100181.97;5051857;28;664;-56
2022/04/30 09:40:51;;;;;;;;;;;;;;;20.18;48.13;100188.28;5051673;28;884;-57
2022/04/30 09:43:18;;;;;;;;;;;;;;;20.07;48.81;100185.09;5051702;28;795;-57
2022/04/30 09:45:44;;;;;;;;;;;;;;;20.25;48.70;100186.41;5051644;28;811;-57
2022/04/30 09:54:02;;;;;;;;;;;;;;;20.32;45.94;100191.78;5051560;28;637;-57
2022/04/30 09:56:39;;;;;;;;;;;;;;;19.65;47.87;100188.22;5033622;28;843;-58
2022/04/30 10:24:56;;;;;;;;;;;;;;;20.75;46.05;100145.94;5890620;22;1695;-55
2022/04/30 10:27:24;;;;;;;;;;;;;;;20.42;45.92;100147.66;5075373;28;837;-54
2022/04/30 10:29:51;;;;;;;;;;;;;;;20.11;46.84;100142.88;5075224;28;1965;-55
2022/04/30 10:32:25;;;;;;;;;;;;;;;20.14;48.54;100145.56;5075248;28;841;-53
2022/04/30 10:34:53;;;;;;;;;;;;;;;20.33;47.95;100152.03;5075068;28;923;-55
2022/04/30 10:37:36;;;;;;;;;;;;;;;20.30;46.98;100146.56;5075051;28;873;-54
2022/04/30 10:40:05;;;;;;;;;;;;;;;20.26;46.06;100143.88;5075035;28;786;-55
2022/04/30 10:42:39;;;;;;;;;;;;;;;19.83;47.30;100153.16;5074921;28;841;-54
2022/04/30 10:45:07;;;;;;;;;;;;;;;19.61;48.73;100153.13;5074938;28;861;-54
2022/04/30 10:47:35;;;;;;;;;;;;;;;19.74;47.56;100146.25;5075051;28;881;-55
2022/04/30 10:50:02;;;;;;;;;;;;;;;20.01;48.10;100147.66;5074651;28;1939;-54
2022/04/30 10:52:28;;;;;;;;;;;;;;;20.08;48.29;100144.59;5074756;28;889;-55
2022/04/30 10:54:58;;;;;;;;;;;;;;;19.96;46.88;100139.84;5074629;28;825;-53
2022/04/30 10:57:24;;;;;;;;;;;;;;;19.92;46.52;100133.56;5074920;28;825;-56
2022/04/30 11:00:02;;;;;;;;;;;;;;;19.97;47.77;100132.97;5074956;28;806;-55
2022/04/30 11:02:32;;;;;;;;;;;;;;;19.99;48.33;100138.91;5074590;28;818;-53
2022/04/30 11:04:59;;;;;;;;;;;;;;;20.11;47.26;100135.22;5074494;28;868;-54
2022/04/30 11:07:30;;;;;;;;;;;;;;;20.28;47.11;100127.34;5074466;28;886;-54
2022/04/30 11:09:57;;;;;;;;;;;;;;;21.34;46.18;100119.78;5074356;28;1968;-53
2022/04/30 11:12:31;;;;;;;;;;;;;;;21.79;43.11;100121.75;5074416;28;893;-54
2022/04/30 11:14:58;;;;;;;;;;;;;;;21.03;43.96;100098.22;5074280;28;922;-55
2022/04/30 11:17:26;;;;;;;;;;;;;;;19.81;44.99;100110.78;5074409;28;814;-55
2022/04/30 11:19:55;;;;;;;;;;;;;;;19.31;46.76;100111.34;5074281;28;893;-54
2022/04/30 11:22:23;;;;;;;;;;;;;;;19.31;47.99;100111.34;5074274;28;830;-54
2022/04/30 11:24:49;;;;;;;;;;;;;;;19.42;46.44;100110.19;5074206;28;1079;-55
2022/04/30 11:27:16;;;;;;;;;;;;;;;19.58;46.64;100107.16;5074006;28;1343;-55
2022/04/30 11:29:50;;;;;;;;;;;;;;;19.89;45.64;100107.22;5074069;28;1914;-55
2022/04/30 11:32:21;;;;;;;;;;;;;;;20.03;46.37;100100.28;5073966;28;838;-55
2022/04/30 11:34:49;;;;;;;;;;;;;;;20.24;45.20;100092.25;5073990;28;850;-55
2022/04/30 11:37:16;;;;;;;;;;;;;;;20.71;44.43;100091.16;5073929;28;810;-55
2022/04/30 11:39:43;;;;;;;;;;;;;;;20.17;45.91;100096.91;5073908;28;798;-56
2022/04/30 11:42:10;;;;;;;;;;;;;;;20.04;46.28;100089.84;5073858;28;826;-56
2022/04/30 11:44:36;;;;;;;;;;;;;;;19.95;46.26;100091.38;5073906;28;842;-54
2022/04/30 11:47:05;;;;;;;;;;;;;;;19.79;46.65;100094.41;5073799;28;881;-55
2022/04/30 11:49:33;;;;;;;;;;;;;;;20.24;45.44;100097.88;5073635;28;1890;-55
2022/04/30 11:52:00;;;;;;;;;;;;;;;20.96;44.87;100090.88;5073707;28;806;-55
2022/04/30 11:54:28;;;;;;;;;;;;;;;20.98;43.97;100096.81;5055681;28;950;-55
2022/04/30 11:56:56;;;;;;;;;;;;;;;20.58;45.20;100103.31;5073832;28;872;-55
2022/04/30 12:11:41;;;;;;;;;;;;;;;20.52;45.83;100085.47;5073690;28;636;-54
2022/04/30 12:14:08;;;;;;;;;;;;;;;20.38;44.82;100078.44;5073174;28;850;-55
2022/04/30 12:16:39;;;;;;;;;;;;;;;20.57;46.57;100084.09;5073229;28;853;-55
2022/04/30 12:24:45;;;;;;;;;;;;;;;20.98;44.79;100074.34;5073329;28;1458;-54
2022/04/30 12:27:21;;;;;;;;;;;;;;;20.55;44.65;100067.72;5072953;28;1196;-55
2022/04/30 12:29:58;;;;;;;;;;;;;;;20.07;45.84;100067.25;5073338;28;1972;-54
2022/04/30 12:32:25;;;;;;;;;;;;;;;20.71;45.83;100066.66;5072317;28;838;-55
2022/04/30 12:34:51;;;;;;;;;;;;;;;21.50;44.32;100062.44;5072810;28;928;-56
2022/04/30 12:37:28;;;;;;;;;;;;;;;21.37;44.11;100062.59;5072770;28;778;-56
2022/04/30 12:39:54;;;;;;;;;;;;;;;21.60;42.52;100061.94;5072745;28;889;-55
2022/04/30 12:54:32;;;;;;;;;;;;;;;20.27;45.24;100054.84;5072818;28;628;-54
2022/04/30 12:56:58;;;;;;;;;;;;;;;20.06;46.30;100054.47;5072359;28;802;-53
2022/04/30 12:59:26;;;;;;;;;;;;;;;19.89;46.39;100056.75;5072314;28;849;-55
2022/04/30 13:01:52;;;;;;;;;;;;;;;19.68;46.57;100049.91;5072368;28;856;-55
2022/04/30 13:04:18;;;;;;;;;;;;;;;19.73;47.15;100054.94;5072178;28;897;-54
2022/04/30 13:06:46;;;;;;;;;;;;;;;19.55;46.85;100055.59;5072234;28;852;-55
2022/04/30 13:14:45;;;;;;;;;;;;;;;19.23;48.24;100051.19;5057279;28;684;-54
2022/04/30 13:17:11;;;;;;;;;;;;;;;19.92;47.81;100050.19;5071921;28;877;-55
2022/04/30 13:19:41;;;;;;;;;;;;;;;21.22;46.09;100051.22;5072002;28;846;-55
2022/04/30 13:22:08;;;;;;;;;;;;;;;21.61;44.45;100055.09;5071870;28;826;-55
2022/04/30 13:24:35;;;;;;;;;;;;;;;21.43;44.95;100049.50;5072088;28;923;-55
2022/04/30 13:27:00;;;;;;;;;;;;;;;20.74;45.99;100045.28;5071692;28;1244;-55
2022/04/30 13:29:27;;;;;;;;;;;;;;;20.18;46.83;100045.16;5071848;28;1975;-55
2022/04/30 13:31:53;;;;;;;;;;;;;;;19.44;48.14;100048.81;5071772;28;834;-54
2022/04/30 13:34:21;;;;;;;;;;;;;;;19.12;48.85;100046.00;5071895;28;846;-53
2022/04/30 13:36:48;;;;;;;;;;;;;;;19.08;49.43;100047.34;5053791;28;805;-56
2022/04/30 13:39:14;;;;;;;;;;;;;;;18.76;49.10;100046.44;5071737;28;826;-55
2022/04/30 13:41:42;;;;;;;;;;;;;;;18.53;49.57;100051.19;5071736;28;794;-56
2022/04/30 13:44:09;;;;;;;;;;;;;;;18.45;49.91;100057.47;5070910;28;913;-55
2022/04/30 13:46:37;;;;;;;;;;;;;;;18.32;50.25;100049.13;5071607;28;851;-55
2022/04/30 13:49:04;;;;;;;;;;;;;;;18.52;50.42;100055.25;5071645;28;818;-55
2022/04/30 13:51:32;;;;;;;;;;;;;;;18.69;50.38;100047.47;5071506;28;1945;-54
2022/04/30 13:54:00;;;;;;;;;;;;;;;18.64;50.08;100041.66;5071437;28;954;-56
2022/04/30 13:56:28;;;;;;;;;;;;;;;18.47;50.46;100047.41;5071505;28;958;-54
2022/04/30 13:58:56;;;;;;;;;;;;;;;18.63;50.61;100051.31;5071430;28;902;-56
2022/04/30 14:01:23;;;;;;;;;;;;;;;18.71;50.37;100038.59;5071389;28;897;-55
2022/04/30 14:03:58;;;;;;;;;;;;;;;18.56;49.86;100044.72;5071528;28;873;-56
2022/04/30 14:06:27;;;;;;;;;;;;;;;18.60;50.38;100052.97;5071571;28;1177;-53
2022/04/30 14:21:09;;;;;;;;;;;;;;;18.83;50.20;100040.63;5071542;28;604;-57
2022/04/30 14:23:36;;;;;;;;;;;;;;;18.67;49.69;100043.53;5071546;28;814;-55
2022/04/30 14:26:05;;;;;;;;;;;;;;;18.72;50.84;100049.34;5071096;28;1450;-56
2022/04/30 14:28:31;;;;;;;;;;;;;;;18.74;50.26;100055.28;5071282;28;837;-55
2022/04/30 14:31:01;;;;;;;;;;;;;;;18.71;49.36;100052.59;5071195;28;1957;-56
2022/04/30 14:33:29;;;;;;;;;;;;;;;18.56;50.02;100061.50;5071376;28;941;-55
2022/04/30 14:35:55;;;;;;;;;;;;;;;18.55;50.39;100057.13;5071109;28;1129;-55
2022/04/30 14:38:22;;;;;;;;;;;;;;;18.53;50.36;100070.00;5071165;28;826;-54
2022/04/30 14:40:50;;;;;;;;;;;;;;;18.48;50.06;100060.19;5071074;28;1218;-54
2022/04/30 14:43:17;;;;;;;;;;;;;;;18.32;50.76;100065.91;5070989;28;926;-54
2022/04/30 14:45:44;;;;;;;;;;;;;;;18.27;51.11;100069.28;5071024;28;897;-55
2022/04/30 14:48:11;;;;;;;;;;;;;;;18.34;50.92;100067.00;5071083;28;949;-56
2022/04/30 14:50:38;;;;;;;;;;;;;;;18.34;50.93;100072.59;5070865;28;1921;-56
2022/04/30 14:53:05;;;;;;;;;;;;;;;18.30;51.20;100073.97;5071033;28;814;-56
2022/04/30 14:55:32;;;;;;;;;;;;;;;18.18;51.47;100069.94;5072308;28;909;-56
2022/04/30 14:57:59;;;;;;;;;;;;;;;18.06;51.46;100076.31;5074675;28;933;-56
2022/04/30 15:00:26;;;;;;;;;;;;;;;17.89;51.57;100070.06;5074592;28;876;-54